createdAt,value
2022-08-30T00:02:48.466Z,4.20
2022-08-30T00:05:51.817Z,3.97
2022-08-30T00:08:59.957Z,4.30
2022-08-30T00:12:04.510Z,4.30
2022-08-30T00:15:09.325Z,4.50
2022-08-30T00:18:18.160Z,4.28
2022-08-30T00:21:22.385Z,4.30
2022-08-30T00:24:25.770Z,4.03
2022-08-30T00:27:29.844Z,4.20
2022-08-30T00:30:33.280Z,4.40
2022-08-30T00:33:36.652Z,4.10
2022-08-30T00:36:39.804Z,3.90
2022-08-30T00:39:43.528Z,4.30
2022-08-30T00:42:50.761Z,4.63
2022-08-30T00:45:55.694Z,3.80
2022-08-30T00:49:03.913Z,3.85
2022-08-30T00:52:08.468Z,3.58
2022-08-30T00:55:15.013Z,3.78
2022-08-30T00:58:21.844Z,3.83
2022-08-30T01:01:26.035Z,3.73
2022-08-30T01:04:30.116Z,3.85
2022-08-30T01:07:34.801Z,4.00
2022-08-30T01:10:39.039Z,3.90
2022-08-30T01:13:42.917Z,3.97
2022-08-30T01:16:47.339Z,3.97
2022-08-30T01:20:01.211Z,3.90
2022-08-30T01:23:12.513Z,4.07
2022-08-30T01:26:17.441Z,4.20
2022-08-30T01:29:25.876Z,4.30
2022-08-30T01:32:29.877Z,4.43
2022-08-30T01:35:49.597Z,4.53
2022-08-30T01:38:56.898Z,4.20
2022-08-30T01:42:01.396Z,4.75
2022-08-30T01:45:06.243Z,4.90
2022-08-30T01:48:12.762Z,4.57
2022-08-30T01:51:16.781Z,4.53
2022-08-30T01:54:19.947Z,4.30
2022-08-30T01:57:26.955Z,4.40
2022-08-30T02:00:30.725Z,4.40
2022-08-30T02:03:35.432Z,4.60
2022-08-30T02:06:39.859Z,4.28
2022-08-30T02:09:43.451Z,4.82
2022-08-30T02:12:49.423Z,5.05
2022-08-30T02:15:54.491Z,5.50
2022-08-30T02:18:58.276Z,5.33
2022-08-30T02:22:01.584Z,5.15
2022-08-30T02:25:20.752Z,5.57
2022-08-30T02:28:25.805Z,6.15
2022-08-30T02:31:28.931Z,5.70
2022-08-30T02:34:32.423Z,6.13
2022-08-30T02:37:35.733Z,6.60
2022-08-30T02:40:39.398Z,6.57
2022-08-30T02:43:42.813Z,6.15
2022-08-30T02:46:45.997Z,6.33
2022-08-30T02:49:49.180Z,6.83
2022-08-30T02:52:52.908Z,5.97
2022-08-30T02:55:57.886Z,6.78
2022-08-30T02:59:01.236Z,6.80
2022-08-30T03:02:04.705Z,6.30
2022-08-30T03:05:13.045Z,6.37
2022-08-30T03:08:16.383Z,6.55
2022-08-30T03:11:22.395Z,6.95
2022-08-30T03:14:28.127Z,6.28
2022-08-30T03:17:31.416Z,6.90
2022-08-30T03:20:35.205Z,6.53
2022-08-30T03:23:38.608Z,6.80
2022-08-30T03:26:46.052Z,7.50
2022-08-30T03:29:49.724Z,7.15
2022-08-30T03:32:52.981Z,7.50
2022-08-30T03:35:56.216Z,8.17
2022-08-30T03:38:59.408Z,8.10
2022-08-30T03:42:04.689Z,8.30
2022-08-30T03:45:09.272Z,8.55
2022-08-30T03:48:13.062Z,9.57
2022-08-30T03:51:16.330Z,9.10
2022-08-30T03:54:19.701Z,9.18
2022-08-30T03:57:24.276Z,9.57
2022-08-30T04:00:28.098Z,9.07
2022-08-30T04:03:31.684Z,9.67
2022-08-30T04:06:34.896Z,9.27
2022-08-30T04:09:38.283Z,9.27
2022-08-30T04:12:49.420Z,8.68
2022-08-30T04:15:53.029Z,9.20
2022-08-30T04:18:56.379Z,9.70
2022-08-30T04:21:59.572Z,9.63
2022-08-30T04:25:03.585Z,9.25
2022-08-30T04:28:08.074Z,10.40
2022-08-30T04:31:17.173Z,10.00
2022-08-30T04:34:20.452Z,10.10
2022-08-30T04:37:23.876Z,10.60
2022-08-30T04:40:27.224Z,10.65
2022-08-30T04:43:30.764Z,10.70
2022-08-30T04:46:35.817Z,11.50
2022-08-30T04:49:47.522Z,10.43
2022-08-30T04:52:50.832Z,10.53
2022-08-30T04:55:55.090Z,10.88
2022-08-30T04:58:59.437Z,10.48
2022-08-30T05:02:05.482Z,9.77
2022-08-30T05:05:28.795Z,11.40
2022-08-30T05:08:32.163Z,11.10
2022-08-30T05:11:35.417Z,10.35
2022-08-30T05:14:38.589Z,10.18
2022-08-30T05:17:42.335Z,9.98
2022-08-30T05:20:45.547Z,11.80
2022-08-30T05:23:49.863Z,10.20
2022-08-30T05:26:53.067Z,10.60
2022-08-30T05:29:56.796Z,11.20
2022-08-30T05:33:00.305Z,11.45
2022-08-30T05:36:07.337Z,11.23
2022-08-30T05:39:11.249Z,11.00
2022-08-30T05:42:16.849Z,10.98
2022-08-30T05:45:20.503Z,11.52
2022-08-30T05:48:23.684Z,11.00
2022-08-30T05:51:31.493Z,11.30
2022-08-30T05:54:34.697Z,11.20
2022-08-30T05:57:40.175Z,11.18
2022-08-30T06:00:43.392Z,11.02
2022-08-30T06:03:46.868Z,10.68
2022-08-30T06:06:50.176Z,10.43
2022-08-30T06:09:53.417Z,10.10
2022-08-30T06:12:56.930Z,10.40
2022-08-30T06:16:00.319Z,10.30
2022-08-30T06:19:03.591Z,9.82
2022-08-30T06:22:06.741Z,9.63
2022-08-30T06:25:10.593Z,10.97
2022-08-30T06:28:14.003Z,10.73
2022-08-30T06:31:22.493Z,10.52
2022-08-30T06:34:26.715Z,10.40
2022-08-30T06:37:30.326Z,10.30
2022-08-30T06:40:33.757Z,9.80
2022-08-30T06:43:37.556Z,10.82
2022-08-30T06:46:40.813Z,10.52
2022-08-30T06:49:44.052Z,11.18
2022-08-30T06:52:47.637Z,10.20
2022-08-30T06:56:03.308Z,11.03
2022-08-30T06:59:07.199Z,10.70
2022-08-30T07:02:10.479Z,11.27
2022-08-30T07:05:18.537Z,10.55
2022-08-30T07:08:23.119Z,11.03
2022-08-30T07:11:35.757Z,11.63
2022-08-30T07:14:39.827Z,11.15
2022-08-30T07:18:01.661Z,9.88
2022-08-30T07:21:11.149Z,10.65
2022-08-30T07:24:14.453Z,10.87
2022-08-30T07:27:17.695Z,11.03
2022-08-30T07:30:21.253Z,10.73
2022-08-30T07:33:24.464Z,10.52
2022-08-30T07:36:27.744Z,9.45
2022-08-30T07:39:31.864Z,9.37
2022-08-30T07:42:35.192Z,9.43
2022-08-30T07:45:39.329Z,9.55
2022-08-30T07:48:44.253Z,8.45
2022-08-30T07:51:47.857Z,8.73
2022-08-30T07:54:52.954Z,8.40
2022-08-30T07:57:56.682Z,7.90
2022-08-30T08:01:02.035Z,7.82
2022-08-30T08:04:08.676Z,7.15
2022-08-30T08:07:15.681Z,7.90
2022-08-30T08:10:18.976Z,8.00
2022-08-30T08:13:23.548Z,8.50
2022-08-30T08:16:33.732Z,7.30
2022-08-30T08:19:36.949Z,7.75
2022-08-30T08:22:40.374Z,7.00
2022-08-30T08:25:43.655Z,6.30
2022-08-30T08:28:47.228Z,6.45
2022-08-30T08:31:50.677Z,7.22
2022-08-30T08:34:53.962Z,6.72
2022-08-30T08:37:57.257Z,7.30
2022-08-30T08:41:12.830Z,8.17
2022-08-30T08:44:54.380Z,8.82
2022-08-30T08:48:14.409Z,8.35
2022-08-30T08:51:39.196Z,7.93
2022-08-30T08:54:56.312Z,7.90
2022-08-30T08:58:02.837Z,8.30
2022-08-30T09:01:08.675Z,7.80
2022-08-30T09:04:39.318Z,8.88
2022-08-30T09:07:49.805Z,7.18
2022-08-30T09:11:05.516Z,7.93
2022-08-30T09:14:16.928Z,7.90
2022-08-30T09:17:22.047Z,8.40
2022-08-30T09:20:28.396Z,9.15
2022-08-30T09:23:34.612Z,11.38
2022-08-30T09:26:38.715Z,12.63
2022-08-30T09:30:01.420Z,11.23
2022-08-30T09:33:18.268Z,11.35
2022-08-30T09:36:51.945Z,11.27
2022-08-30T09:39:58.608Z,11.93
2022-08-30T09:43:25.706Z,10.83
2022-08-30T09:46:29.042Z,11.80
2022-08-30T09:49:32.271Z,11.98
2022-08-30T09:52:56.521Z,10.98
2022-08-30T09:56:02.666Z,10.40
2022-08-30T09:59:33.101Z,11.00
2022-08-30T10:03:06.358Z,10.50
2022-08-30T10:06:28.917Z,9.02
2022-08-30T10:09:43.168Z,8.63
2022-08-30T10:12:57.084Z,8.25
2022-08-30T10:16:30.170Z,8.10
2022-08-30T10:19:39.762Z,8.57
2022-08-30T10:22:48.174Z,9.70
2022-08-30T10:26:35.781Z,8.70
2022-08-30T10:29:55.118Z,8.75
2022-08-30T10:33:14.912Z,8.23
2022-08-30T10:36:31.167Z,7.70
2022-08-30T10:39:42.019Z,6.60
2022-08-30T10:42:45.317Z,6.68
2022-08-30T10:45:53.462Z,7.85
2022-08-30T10:48:59.183Z,7.27
2022-08-30T10:52:14.419Z,6.40
2022-08-30T10:55:25.292Z,7.38
2022-08-30T10:58:31.343Z,7.47
2022-08-30T11:02:00.569Z,7.40
2022-08-30T11:05:25.017Z,6.40
2022-08-30T11:08:44.223Z,7.33
2022-08-30T11:12:08.164Z,7.35
2022-08-30T11:15:21.561Z,7.18
2022-08-30T11:18:27.532Z,6.75
2022-08-30T11:21:36.197Z,6.53
2022-08-30T11:24:59.681Z,6.50
2022-08-30T11:28:05.877Z,7.10
2022-08-30T11:31:18.749Z,7.05
2022-08-30T11:34:45.600Z,6.30
2022-08-30T11:37:51.475Z,5.93
2022-08-30T11:40:58.974Z,6.80
2022-08-30T11:44:21.619Z,6.80
2022-08-30T11:47:45.784Z,6.22
2022-08-30T11:50:52.580Z,7.00
2022-08-30T11:54:43.770Z,6.30
2022-08-30T11:57:52.874Z,5.80
2022-08-30T12:01:42.054Z,6.07
2022-08-30T12:04:46.781Z,5.80
2022-08-30T12:08:01.564Z,5.20
2022-08-30T12:11:13.006Z,5.40
2022-08-30T12:14:54.858Z,5.10
2022-08-30T12:18:19.662Z,5.70
2022-08-30T12:21:25.200Z,4.93
2022-08-30T12:24:43.542Z,5.07
2022-08-30T12:27:47.683Z,5.00
2022-08-30T12:30:52.447Z,4.83
2022-08-30T12:34:00.794Z,4.68
2022-08-30T12:37:23.712Z,5.07
2022-08-30T12:40:31.039Z,4.90
2022-08-30T12:43:47.369Z,4.30
2022-08-30T12:46:59.669Z,4.97
2022-08-30T12:50:05.287Z,4.30
2022-08-30T12:53:14.256Z,4.47
2022-08-30T12:56:35.026Z,4.45
2022-08-30T12:59:52.912Z,4.53
2022-08-30T13:03:03.600Z,4.47
2022-08-30T13:06:37.400Z,4.45
2022-08-30T13:09:43.031Z,4.93
2022-08-30T13:13:04.423Z,4.40
2022-08-30T13:16:17.820Z,4.73
2022-08-30T13:19:42.821Z,4.30
2022-08-30T13:23:07.208Z,5.13
2022-08-30T13:26:11.437Z,4.90
2022-08-30T13:29:22.266Z,4.47
2022-08-30T13:32:25.832Z,4.83
2022-08-30T13:35:30.477Z,4.30
2022-08-30T13:38:33.968Z,4.05
2022-08-30T13:41:40.668Z,3.40
2022-08-30T13:44:48.240Z,3.40
2022-08-30T13:47:52.208Z,3.60
2022-08-30T13:50:55.503Z,3.80
2022-08-30T13:53:58.891Z,4.47
2022-08-30T13:57:03.307Z,4.88
2022-08-30T14:00:12.305Z,4.70
2022-08-30T14:03:16.620Z,5.00
2022-08-30T14:06:32.811Z,4.90
2022-08-30T14:09:37.121Z,4.60
2022-08-30T14:13:02.524Z,5.05
2022-08-30T14:19:29.852Z,4.90
2022-08-30T14:22:33.388Z,3.43
2022-08-30T14:25:36.615Z,3.88
2022-08-30T14:28:39.916Z,3.60
2022-08-30T14:31:44.205Z,3.88
2022-08-30T14:34:47.817Z,3.00
2022-08-30T14:37:51.363Z,4.57
2022-08-30T14:40:54.762Z,3.70
2022-08-30T14:43:57.901Z,4.85
2022-08-30T14:47:01.471Z,2.17
2022-08-30T14:50:05.657Z,2.90
2022-08-30T14:53:09.210Z,3.13
2022-08-30T14:56:16.795Z,4.15
2022-08-30T14:59:24.373Z,3.50
2022-08-30T15:02:27.625Z,3.35
2022-08-30T15:05:32.250Z,2.60
2022-08-30T15:08:37.106Z,3.67
2022-08-30T15:11:43.533Z,3.00
2022-08-30T15:14:47.235Z,2.67
2022-08-30T15:17:50.748Z,3.30
2022-08-30T15:20:54.002Z,3.40
2022-08-30T15:23:58.079Z,3.00
2022-08-30T15:27:01.968Z,3.60
2022-08-30T15:30:06.472Z,3.75
2022-08-30T15:33:09.593Z,4.53
2022-08-30T15:36:13.543Z,3.10
2022-08-30T15:39:17.610Z,4.40
2022-08-30T15:42:20.873Z,4.30
2022-08-30T15:45:24.083Z,2.80
2022-08-30T15:48:27.387Z,3.67
2022-08-30T15:51:41.148Z,2.57
2022-08-30T15:54:48.291Z,3.57
2022-08-30T15:57:51.708Z,2.88
2022-08-30T16:00:55.049Z,3.20
2022-08-30T16:03:59.206Z,3.28
2022-08-30T16:07:02.444Z,2.80
2022-08-30T16:10:08.547Z,3.00
2022-08-30T16:13:11.718Z,2.80
2022-08-30T16:16:16.360Z,2.90
2022-08-30T16:19:19.599Z,4.00
2022-08-30T16:22:23.278Z,3.83
2022-08-30T16:25:26.659Z,2.80
2022-08-30T16:28:45.235Z,2.50
2022-08-30T16:31:49.151Z,2.70
2022-08-30T16:34:52.376Z,3.22
2022-08-30T16:37:55.582Z,3.43
2022-08-30T16:40:59.126Z,3.60
2022-08-30T16:44:03.795Z,3.55
2022-08-30T16:47:12.850Z,3.35
2022-08-30T16:50:18.516Z,2.65
2022-08-30T16:53:21.728Z,3.70
2022-08-30T16:56:27.075Z,3.10
2022-08-30T16:59:30.484Z,4.22
2022-08-30T17:02:34.616Z,2.80
2022-08-30T17:05:38.136Z,3.17
2022-08-30T17:08:41.543Z,2.40
2022-08-30T17:11:44.866Z,3.67
2022-08-30T17:14:48.178Z,2.92
2022-08-30T17:17:51.436Z,3.40
2022-08-30T17:20:55.908Z,3.30
2022-08-30T17:24:02.407Z,4.03
2022-08-30T17:27:07.962Z,3.27
2022-08-30T17:30:11.714Z,2.78
2022-08-30T17:33:15.190Z,3.38
2022-08-30T17:36:21.110Z,3.13
2022-08-30T17:39:24.307Z,3.63
2022-08-30T17:42:29.760Z,2.67
2022-08-30T17:45:33.545Z,2.00
2022-08-30T17:48:37.660Z,2.70
2022-08-30T17:51:42.680Z,3.00
2022-08-30T17:54:45.904Z,2.60
2022-08-30T18:01:14.818Z,2.78
2022-08-30T18:04:20.538Z,5.45
2022-08-30T18:07:23.892Z,4.82
2022-08-30T18:10:30.514Z,4.40
2022-08-30T18:13:50.969Z,3.43
2022-08-30T18:16:54.492Z,3.40
2022-08-30T18:19:58.138Z,3.90
2022-08-30T18:23:01.437Z,3.10
2022-08-30T18:26:04.719Z,3.07
2022-08-30T18:29:07.997Z,2.90
2022-08-30T18:32:11.783Z,2.88
2022-08-30T18:35:15.324Z,3.17
2022-08-30T18:38:20.209Z,4.00
2022-08-30T18:41:27.711Z,4.17
2022-08-30T18:44:33.674Z,3.50
2022-08-30T18:47:37.473Z,4.03
2022-08-30T18:50:43.847Z,3.67
2022-08-30T18:53:48.861Z,3.72
2022-08-30T18:56:51.976Z,4.30
2022-08-30T18:59:55.259Z,3.63
2022-08-30T19:02:58.508Z,3.95
2022-08-30T19:06:07.179Z,3.90
2022-08-30T19:09:11.015Z,3.20
2022-08-30T19:12:14.646Z,3.77
2022-08-30T19:15:18.327Z,3.40
2022-08-30T19:18:22.400Z,3.63
2022-08-30T19:21:25.939Z,3.85
2022-08-30T19:24:29.369Z,3.88
2022-08-30T19:27:38.433Z,4.10
2022-08-30T19:30:43.515Z,4.47
2022-08-30T19:33:47.414Z,4.28
2022-08-30T19:36:50.592Z,4.00
2022-08-30T19:39:53.808Z,3.80
2022-08-30T19:42:58.217Z,4.47
2022-08-30T19:46:01.483Z,4.40
2022-08-30T19:49:07.156Z,4.40
2022-08-30T19:52:10.577Z,4.63
2022-08-30T19:55:14.207Z,5.80
2022-08-30T19:58:19.840Z,5.10
2022-08-30T20:01:33.218Z,4.87
2022-08-30T20:04:38.133Z,5.00
2022-08-30T20:07:44.250Z,4.75
2022-08-30T20:10:47.792Z,3.88
2022-08-30T20:13:51.054Z,4.50
2022-08-30T20:16:54.524Z,4.60
2022-08-30T20:19:59.900Z,4.45
2022-08-30T20:23:03.122Z,4.65
2022-08-30T20:24:26.360Z,2.50
2022-08-30T20:26:07.568Z,4.90
2022-08-30T20:29:10.947Z,4.13
2022-08-30T20:32:14.310Z,4.50
2022-08-30T20:35:18.328Z,4.70
2022-08-30T20:38:22.538Z,4.90
2022-08-30T20:41:28.933Z,5.53
2022-08-30T20:44:32.124Z,4.90
2022-08-30T20:47:36.688Z,6.00
2022-08-30T20:50:42.633Z,5.07
2022-08-30T20:53:46.207Z,5.13
2022-08-30T20:56:50.233Z,5.28
2022-08-30T20:59:53.477Z,5.23
2022-08-30T21:02:56.821Z,5.30
2022-08-30T21:06:00.074Z,5.35
2022-08-30T21:09:04.776Z,4.90
2022-08-30T21:12:08.239Z,5.18
2022-08-30T21:15:33.946Z,5.50
2022-08-30T21:18:36.782Z,5.10
2022-08-30T21:21:40.000Z,5.47
2022-08-30T21:24:43.334Z,5.32
2022-08-30T21:27:47.600Z,5.57
2022-08-30T21:30:50.872Z,5.90
2022-08-30T21:33:56.029Z,5.77
2022-08-30T21:36:59.227Z,6.00
2022-08-30T21:40:03.054Z,5.90
2022-08-30T21:43:07.564Z,5.63
2022-08-30T21:46:11.243Z,6.30
2022-08-30T21:49:20.936Z,5.90
2022-08-30T21:52:24.420Z,5.80
2022-08-30T21:55:27.760Z,6.32
2022-08-30T21:58:30.931Z,6.35
2022-08-30T22:01:36.334Z,5.83
2022-08-30T22:04:41.397Z,6.10
2022-08-30T22:07:44.593Z,5.85
2022-08-30T22:10:47.836Z,5.63
2022-08-30T22:13:52.781Z,6.18
2022-08-30T22:16:56.337Z,6.93
2022-08-30T22:20:02.043Z,6.03
2022-08-30T22:23:05.384Z,6.60
2022-08-30T22:26:10.114Z,5.82
2022-08-30T22:29:13.740Z,6.38
2022-08-30T22:32:17.055Z,6.30
2022-08-30T22:35:20.306Z,5.53
2022-08-30T22:38:23.924Z,6.32
2022-08-30T22:41:31.157Z,6.65
2022-08-30T22:44:34.802Z,5.72
2022-08-30T22:47:38.114Z,6.07
2022-08-30T22:50:41.599Z,6.10
2022-08-30T22:53:47.559Z,6.38
2022-08-30T22:56:50.712Z,6.25
2022-08-30T22:59:56.560Z,5.80
2022-08-30T23:02:59.716Z,6.30
2022-08-30T23:06:03.556Z,5.93
2022-08-30T23:09:07.957Z,6.03
2022-08-30T23:12:14.460Z,6.22
2022-08-30T23:15:17.621Z,7.03
2022-08-30T23:18:21.177Z,7.77
2022-08-30T23:21:28.060Z,7.33
2022-08-30T23:24:49.833Z,8.15
2022-08-30T23:28:12.164Z,7.68
2022-08-30T23:31:42.468Z,7.28
2022-08-30T23:35:04.941Z,7.50
2022-08-30T23:38:27.311Z,7.27
2022-08-30T23:41:48.984Z,7.70
2022-08-30T23:45:10.982Z,7.50
2022-08-30T23:48:32.837Z,7.15
2022-08-30T23:51:56.224Z,7.00
2022-08-30T23:55:18.041Z,7.37
2022-08-30T23:58:39.968Z,7.85
